»·PEaware :: DAL213 KDEN-KJAC

DAL213 :: KDEN-KJAC

FLIGHT INFORMATION

Flight Status: Arrived
Operator:
Delta Air Lines
More flights by this operator :: More flights under this callsign
Pilot: Nicolas L. (9332)
Aircraft: BOEING 737-800
(B738)
More flights by this aircraft type
Origin: KDEN Denver Intl
United States
Destination: KJAC Jackson Hole
United States
More flights between these airports :: More routes between these airports
Route: YAMMI3 LAR DNW JAC
File this flight plan on PilotEdge
Remarks: Live Streaming on Twith "DAL213" and YT
Altitude:
(Current/Filed)
28,000ft
Speed:
(Current/Filed)
400kts
Departed: 07-May-18 07:51 PM
Arrived: 07-May-18 08:54 PM
Distance/Time
Traveled:
352nm/1:03
Distance/Time
To Go:
Arrived

Flight Plot

Page will automatically refresh every two minutes.

Flight plan parsing failed; only flown route is shown


Map Options




Map Legend


Flown Route
Filed Route
Departure Airport
Arrival Airport
Navaid (VOR, NDB)
Fix

Horizontal Profiles

Position Reports

Time Latitude Longitude Heading Altitude Ground
Speed
07-May-18 19:29 39.854389 -104.678080 166 5439ft 0kts
07-May-18 19:30 39.854389 -104.678080 166 5439ft 0kts
07-May-18 19:31 39.854389 -104.678080 166 5439ft 0kts
07-May-18 19:32 39.854389 -104.678080 166 5439ft 0kts
07-May-18 19:33 39.854389 -104.678080 166 5439ft 0kts
07-May-18 19:34 39.854389 -104.678080 166 5439ft 0kts
07-May-18 19:35 39.854389 -104.678080 166 5439ft 0kts
07-May-18 19:36 39.854389 -104.678080 166 5439ft 0kts
07-May-18 19:37 39.854389 -104.678080 166 5439ft 0kts
07-May-18 19:38 39.854389 -104.678080 166 5439ft 0kts
07-May-18 19:39 39.854389 -104.678080 166 5439ft 0kts
07-May-18 19:40 39.855050 -104.677921 218 5439ft 2kts
07-May-18 19:41 39.855382 -104.677126 256 5439ft 0kts
07-May-18 19:42 39.855382 -104.677126 256 5439ft 0kts
07-May-18 19:43 39.855381 -104.677126 256 5439ft 0kts
07-May-18 19:44 39.855381 -104.677128 256 5439ft 0kts
07-May-18 19:45 39.855975 -104.679530 268 5439ft 12kts
07-May-18 19:46 39.855661 -104.683955 195 5439ft 12kts
07-May-18 19:47 39.851788 -104.684043 180 5439ft 18kts
07-May-18 19:48 39.845830 -104.684122 178 5439ft 23kts
07-May-18 19:49 39.841475 -104.684157 181 5439ft 10kts
07-May-18 19:50 39.840672 -104.684853 270 5439ft 0kts
07-May-18 19:51 39.840681 -104.687784 271 5440ft 67kts
07-May-18 19:52 39.842299 -104.745786 272 6899ft 195kts
07-May-18 19:53 39.867668 -104.816298 305 9150ft 250kts
07-May-18 19:54 39.910726 -104.897761 315 10348ft 291kts
07-May-18 19:55 39.989955 -104.949196 357 12281ft 354kts
07-May-18 19:56 40.090436 -104.932640 24 15356ft 376kts
07-May-18 19:57 40.177192 -104.848715 33 18288ft 397kts
07-May-18 19:58 40.282401 -104.808443 5 20977ft 403kts
07-May-18 19:59 40.394669 -104.820371 346 23318ft 410kts
07-May-18 20:00 40.508706 -104.846270 345 25418ft 422kts
07-May-18 20:01 40.611666 -104.914429 320 27203ft 418kts
07-May-18 20:02 40.707457 -105.005266 317 28102ft 429kts
07-May-18 20:03 40.799616 -105.106871 315 28126ft 434kts
07-May-18 20:04 40.891185 -105.210537 315 28136ft 432kts
07-May-18 20:05 40.982249 -105.313824 315 28165ft 431kts
07-May-18 20:06 41.073134 -105.417293 315 28189ft 431kts
07-May-18 20:07 41.164194 -105.521368 315 28201ft 431kts
07-May-18 20:08 41.254581 -105.625055 314 28224ft 430kts
07-May-18 20:09 41.342037 -105.732325 306 28227ft 424kts
07-May-18 20:10 41.415444 -105.855290 304 28229ft 423kts
07-May-18 20:11 41.487235 -105.978723 303 28213ft 421kts
07-May-18 20:12 41.558889 -106.103044 303 28210ft 421kts
07-May-18 20:13 41.629875 -106.226815 303 28211ft 420kts
07-May-18 20:14 41.700724 -106.350829 303 28226ft 420kts
07-May-18 20:15 41.771694 -106.475506 303 28172ft 420kts
07-May-18 20:16 41.842319 -106.600153 303 28200ft 420kts
07-May-18 20:17 41.912829 -106.725091 303 28198ft 420kts
07-May-18 20:18 41.983494 -106.850833 302 28179ft 421kts
07-May-18 20:19 42.053669 -106.976240 303 28208ft 419kts
07-May-18 20:20 42.123410 -107.101329 302 28195ft 418kts
07-May-18 20:21 42.193114 -107.226913 303 28188ft 417kts
07-May-18 20:22 42.262390 -107.352242 303 28181ft 416kts
07-May-18 20:23 42.331670 -107.478084 303 28182ft 416kts
07-May-18 20:24 42.400608 -107.603851 302 28182ft 417kts
07-May-18 20:25 42.469515 -107.730090 302 28182ft 417kts
07-May-18 20:26 42.538483 -107.856973 302 28181ft 417kts
07-May-18 20:27 42.607030 -107.983616 302 28171ft 417kts
07-May-18 20:28 42.675444 -108.110552 302 28165ft 416kts
07-May-18 20:29 42.743916 -108.238139 302 28161ft 417kts
07-May-18 20:30 42.812084 -108.365700 302 28165ft 417kts
07-May-18 20:31 42.880055 -108.493440 302 28146ft 417kts
07-May-18 20:32 42.948122 -108.621911 302 28144ft 417kts
07-May-18 20:33 43.015834 -108.750267 302 28146ft 417kts
07-May-18 20:34 43.083631 -108.879347 302 28153ft 416kts
07-May-18 20:35 43.150960 -109.008090 302 28165ft 416kts
07-May-18 20:36 43.218177 -109.137173 302 28189ft 416kts
07-May-18 20:37 43.285240 -109.266525 302 27806ft 409kts
07-May-18 20:38 43.349826 -109.391641 303 25020ft 396kts
07-May-18 20:39 43.412252 -109.513091 303 22476ft 383kts
07-May-18 20:40 43.472792 -109.631360 304 20264ft 365kts
07-May-18 20:41 43.531466 -109.746406 303 20223ft 373kts
07-May-18 20:42 43.591330 -109.864221 303 20271ft 375kts
07-May-18 20:43 43.650619 -109.981464 303 19994ft 363kts
07-May-18 20:44 43.706645 -110.092674 303 17028ft 343kts
07-May-18 20:45 43.759605 -110.198122 303 14060ft 315kts
07-May-18 20:46 43.806178 -110.290485 300 13483ft 273kts
07-May-18 20:47 43.825925 -110.386098 262 11796ft 264kts
07-May-18 20:48 43.817648 -110.484764 263 10924ft 259kts
07-May-18 20:49 43.797847 -110.577812 246 10240ft 240kts
07-May-18 20:50 43.758798 -110.645781 220 9427ft 220kts
07-May-18 20:51 43.712769 -110.685701 203 8412ft 161kts
07-May-18 20:52 43.671736 -110.705982 201 7733ft 154kts
07-May-18 20:53 43.630830 -110.726330 201 6812ft 152kts
07-May-18 20:54 43.598539 -110.741878 199 6460ft 26kts
07-May-18 20:55 43.599232 -110.740755 111 6460ft 12kts
07-May-18 20:56 43.600935 -110.739269 19 6460ft 8kts
07-May-18 20:57 43.601541 -110.738964 19 6460ft 0kts
07-May-18 20:58 43.601543 -110.738963 19 6460ft 0kts
07-May-18 20:58 43.601545 -110.738962 19 6460ft 0kts
07-May-18 21:00 43.601547 -110.738961 19 6460ft 0kts
07-May-18 21:00 43.601549 -110.738960 19 6460ft 0kts
07-May-18 21:01 43.601551 -110.738960 19 6460ft 0kts
07-May-18 21:02 43.601553 -110.738959 19 6460ft 0kts
07-May-18 21:03 43.601555 -110.738958 19 6460ft 0kts

Navigation Log

Ident Type
Flight plan parsing failed, navigation log unavailable